Decoded Metar for KJMS (JAMESTOWN in ND, USA) (IATA:JMS) | Meteo·Mobile Aviation Weather
aviador You're here:

KJMS Decoded Metar

JAMESTOWN in ND, USA
Report Time2018-09-18 12:56:00
UTC Time2018-09-18 14:01:22
Flight Rules vfr VFR
WindCalm
Visibility9999 m
Phenomena:N/A
Clouds:N/A
CeilingNone
Temp04°C (ISA -8)
Dew Point04°C (100% RH)
AAT2.7°C
QNH1018 hPa
Density Alt469 ft
Elevation1,493 ft
Report Wrong Elevation
Raw Report
KJMS 181256Z AUTO 00000KT 10SM CLR 04/04 A3006 RMK AO2 SLP187
T00440044=

Extra information for KJMS:More info

Metar Taf Metar & Taf Last 4 Metars F.Rules Stats Wind Profile Meteogram Temp Stats Airport Information Weather charts Add Link Nearby VenuesMetar ALERT Operation Metar Decoded Social comments

AIRNAV info for KJMS